createdAt,value
2023-05-05T00:02:02.404Z,1017
2023-05-05T00:12:04.068Z,1016
2023-05-05T00:22:05.711Z,1016
2023-05-05T00:32:07.353Z,1016
2023-05-05T00:42:09.050Z,1016
2023-05-05T00:52:10.571Z,1016
2023-05-05T01:02:11.815Z,1016
2023-05-05T01:12:12.920Z,1015
2023-05-05T01:22:14.031Z,1015
2023-05-05T01:32:15.252Z,1016
2023-05-05T01:42:16.350Z,1016
2023-05-05T01:52:17.439Z,1016
2023-05-05T02:02:18.552Z,1016
2023-05-05T02:12:19.681Z,1016
2023-05-05T02:22:21.020Z,1015
2023-05-05T02:32:22.192Z,1015
2023-05-05T02:42:23.306Z,1015
2023-05-05T02:52:24.360Z,1016
2023-05-05T03:02:25.456Z,1016
2023-05-05T03:12:26.613Z,1016
2023-05-05T03:22:27.781Z,1016
2023-05-05T03:32:28.903Z,1016
2023-05-05T03:42:30.062Z,1016
2023-05-05T03:52:31.468Z,1016
2023-05-05T04:02:32.632Z,1016
2023-05-05T04:12:34.056Z,1016
2023-05-05T04:22:35.277Z,1016
2023-05-05T04:32:36.750Z,1016
2023-05-05T04:42:37.896Z,1016
2023-05-05T04:52:39.082Z,1016
2023-05-05T05:02:40.583Z,1016
2023-05-05T05:12:42.598Z,1016
2023-05-05T05:22:43.702Z,1017
2023-05-05T05:32:44.862Z,1017
2023-05-05T05:42:45.970Z,1017
2023-05-05T05:52:47.180Z,1017
2023-05-05T06:02:48.361Z,1017
2023-05-05T06:12:49.527Z,1018
2023-05-05T06:22:50.941Z,1018
2023-05-05T06:32:52.125Z,1017
2023-05-05T06:42:53.327Z,1017
2023-05-05T06:52:54.468Z,1019
2023-05-05T07:02:55.620Z,1019
2023-05-05T07:12:56.771Z,1019
2023-05-05T07:22:57.994Z,1019
2023-05-05T07:32:59.154Z,1019
2023-05-05T07:43:00.442Z,1020
2023-05-05T07:53:13.896Z,1019
2023-05-05T08:03:16.262Z,1020
2023-05-05T08:13:17.439Z,1020
2023-05-05T08:23:18.555Z,1020
2023-05-05T08:33:19.651Z,1020
2023-05-05T08:43:21.033Z,1020
2023-05-05T08:53:22.165Z,1020
2023-05-05T09:03:23.305Z,1020
2023-05-05T09:13:24.433Z,1020
2023-05-05T09:23:25.552Z,1020
2023-05-05T09:33:26.717Z,1020
2023-05-05T09:43:27.851Z,1020
2023-05-05T09:53:28.923Z,1020
2023-05-05T10:03:30.102Z,1020
2023-05-05T10:13:31.483Z,1019
2023-05-05T10:23:32.558Z,1017
2023-05-05T10:33:33.776Z,1016
2023-05-05T10:43:34.981Z,1014
2023-05-05T10:53:36.175Z,1013
2023-05-05T11:03:37.323Z,1012
2023-05-05T11:13:38.462Z,1012
2023-05-05T11:23:39.581Z,1012
2023-05-05T11:33:40.921Z,1011
2023-05-05T11:43:42.034Z,1011
2023-05-05T11:53:43.143Z,1012
2023-05-05T12:03:44.392Z,1013
2023-05-05T12:13:45.730Z,1013
2023-05-05T12:23:46.869Z,1012
2023-05-05T12:33:48.042Z,1012
2023-05-05T12:43:49.237Z,1012
2023-05-05T12:53:50.594Z,1012
2023-05-05T13:03:51.691Z,1012
2023-05-05T13:13:52.774Z,1012
2023-05-05T13:23:55.915Z,1012
2023-05-05T13:34:00.571Z,1012
2023-05-05T13:44:02.159Z,1012
2023-05-05T13:54:04.314Z,1012
2023-05-05T14:04:06.376Z,1012
2023-05-05T14:14:08.181Z,1012
2023-05-05T14:24:09.656Z,1011
2023-05-05T14:34:11.150Z,1012
2023-05-05T14:44:12.282Z,1012
2023-05-05T14:54:24.153Z,1012
2023-05-05T15:04:28.322Z,1012
2023-05-05T15:14:29.441Z,1012
2023-05-05T15:24:30.788Z,1012
2023-05-05T15:34:31.894Z,1013
2023-05-05T15:44:32.982Z,1012
2023-05-05T15:54:34.093Z,1012
2023-05-05T16:04:35.246Z,1013
2023-05-05T16:14:36.353Z,1013
2023-05-05T16:24:37.497Z,1013
2023-05-05T16:34:38.608Z,1013
2023-05-05T16:44:39.699Z,1013
2023-05-05T16:54:41.061Z,1013
2023-05-05T17:04:42.378Z,1014
2023-05-05T17:14:43.516Z,1014
2023-05-05T17:24:44.615Z,1014
2023-05-05T17:34:45.714Z,1014
2023-05-05T17:44:47.709Z,1013
2023-05-05T17:54:48.865Z,1014
2023-05-05T18:04:50.005Z,1014
2023-05-05T18:14:51.409Z,1014
2023-05-05T18:24:52.557Z,1015
2023-05-05T18:34:53.738Z,1015
2023-05-05T18:44:54.922Z,1015
2023-05-05T18:54:56.315Z,1015
2023-05-05T19:04:57.504Z,1014
2023-05-05T19:14:58.632Z,1014
2023-05-05T19:24:59.719Z,1013
2023-05-05T19:35:01.041Z,1013
2023-05-05T19:45:02.594Z,1014
2023-05-05T19:55:04.414Z,1014
2023-05-05T20:05:06.096Z,1014
2023-05-05T20:15:07.740Z,1014
2023-05-05T20:25:09.151Z,1014
2023-05-05T20:35:10.677Z,1014
2023-05-05T20:45:11.859Z,1014
2023-05-05T20:55:13.048Z,1014
2023-05-05T21:05:14.132Z,1015
2023-05-05T21:15:15.408Z,1015
2023-05-05T21:25:16.697Z,1015
2023-05-05T21:35:17.878Z,1015
2023-05-05T21:45:18.961Z,1016
2023-05-05T21:55:20.069Z,1016
2023-05-05T22:05:21.431Z,1016
2023-05-05T22:15:22.762Z,1016
2023-05-05T22:25:23.888Z,1016
2023-05-05T22:35:24.993Z,1015
2023-05-05T22:45:26.142Z,1016
2023-05-05T22:55:27.244Z,1016
2023-05-05T23:05:28.459Z,1016
2023-05-05T23:15:29.590Z,1016
2023-05-05T23:25:31.005Z,1016
2023-05-05T23:35:32.137Z,1016
2023-05-05T23:45:33.337Z,1016
2023-05-05T23:55:34.511Z,1016
